• Join FlightAware (Why Join?)
  • Login
  • US Flag 
10:29AM EDT


 

Airport Tracker/Info


-or-


 

Live Flight TrackerFlight Track Log ✈ AWE4079 ✈ 07-Jul-2013 ✈ KMHT - KPHL

Flight Track Log - Related Links

Times and Time Zones

All times are in EDT time to prevent confusion due to time zone crossing. See the AWE4079 flight status page for this flight to view local times or setup timezone preferences in your user account.

Time Position Orientation Groundspeed Altitude Reporting Facility
EDT Latitude Longitude Course Direction KTS MPH feet Rate Location/Type
05:29AM 42.9500 -71.4167 270° West 162 186 1,100  Level KA90
05:31AM 43.0314 -71.3950 11° North 197 227 4,600 1,860 Climbing Boston Center
05:32AM 42.9500 -71.9252 270° West  Level FlightAware Approximate
05:32AM 43.0694 -71.4739 303° West 207 238 6,400  Level Boston Center
05:33AM 42.9501 -72.0494 270° West  Level FlightAware Approximate
05:33AM 43.0950 -71.5503 295° West 234 269 8,300  Level Boston Center
05:34AM 42.9500 -72.1736 270° West  Level FlightAware Approximate
05:34AM 43.0772 -71.6528 257° West 255 293 10,300  Level Boston Center
05:35AM 43.0547 -71.7411 251° West 273 314 11,800 1,920 Climbing Boston Center
05:36AM 43.0261 -71.8578 251° West 287 330 14,200 1,920 Climbing Boston Center
05:37AM 43.0017 -71.9547 251° West 297 342 15,700 1,260 Climbing Boston Center
05:38AM 42.9792 -72.0400 250° West 302 348 16,800 1,440 Climbing Boston Center
05:39AM 42.9442 -72.1792 251° West 314 361 18,600 1,500 Climbing Boston Center
05:40AM 42.9192 -72.2928 253° West 319 367 19,900 1,200 Climbing Boston Center
05:41AM 42.8839 -72.4344 251° West 324 373 21,500 1,080 Climbing Boston Center
05:42AM 42.8506 -72.5533 249° West 329 379 22,500 960 Climbing Boston Center
05:43AM 42.8044 -72.7033 247° West 335 386 23,500 720 Climbing Boston Center
05:44AM 42.7728 -72.8164 249° West 341 392 24,000 240 Climbing Boston Center
05:45AM 42.7411 -72.9461 252° West 354 407 24,000  Level Boston Center
05:46AM 42.7028 -73.0956 251° West 371 427 24,000  Level Boston Center
05:47AM 42.6728 -73.2111 251° West 371 427 24,000  Level Boston Center
05:48AM 42.6386 -73.3375 250° West 366 421 24,000  Level Boston Center
05:49AM 42.6022 -73.4639 249° West 366 421 24,000  Level Boston Center
05:50AM 42.5675 -73.5903 250° West 366 421 24,000  Level Boston Center
05:51AM 42.5328 -73.7164 250° West 366 421 24,000  Level Boston Center
05:52AM 42.4981 -73.8425 250° West 366 421 24,000  Level Boston Center
05:53AM 42.4631 -73.9656 249° West 366 421 24,000  Level Boston Center
05:54AM 42.4258 -74.0939 249° West 366 421 24,000  Level Boston Center
05:55AM 42.3928 -74.2167 250° West 366 421 24,000  Level Boston Center
05:56AM 42.3469 -74.3364 243° Southwest 361 415 24,000  Level Boston Center
05:57AM 42.2886 -74.4636 238° Southwest 361 415 24,000  Level Boston Center
05:59AM 42.2061 -74.6344 237° Southwest 363 418 24,000 -360 Level New York Center
06:00AM 42.1481 -74.7511 236° Southwest 363 418 23,100 -1,200 Descending New York Center
06:01AM 42.0942 -74.8681 238° Southwest 368 423 21,700 -1,380 Descending New York Center
06:02AM 42.0381 -74.9847 237° Southwest 373 429 20,400 -1,320 Descending New York Center
06:03AM 41.9861 -75.0958 238° Southwest 368 423 19,100 -720 Descending New York Center
06:04AM 41.9208 -75.1722 221° Southwest 357 411 19,000 -60 Descending New York Center
06:05AM 41.8350 -75.2417 211° Southwest 343 395 19,000 -660 Level New York Center
06:06AM 41.7556 -75.3058 211° Southwest 336 387 17,800 -1,380 Descending New York Center
06:07AM 41.6867 -75.3622 211° Southwest 331 381 16,300 -1,500 Descending New York Center
06:08AM 41.6136 -75.4211 211° Southwest 326 375 14,900 -1,560 Descending New York Center
06:09AM 41.5297 -75.4872 211° Southwest 326 375 13,200 -1,500 Descending New York Center
06:10AM 41.4547 -75.5458 210° Southwest 326 375 12,000 -600 Descending New York Center
06:11AM 41.3769 -75.6094 212° Southwest 326 375 12,000  Level New York Center
06:12AM 41.3061 -75.6622 209° Southwest 326 375 12,000  Level New York Center
06:13AM 41.2239 -75.6839 191° South 302 348 12,000  Level New York Center
06:14AM 41.1375 -75.6611 169° South 308 354 12,000  Level New York Center
06:15AM 41.0431 -75.6294 166° South 319 367 12,000  Level New York Center
06:16AM 40.9525 -75.6011 167° South 319 367 12,000  Level New York Center
06:17AM 40.8764 -75.5764 166° South 319 367 12,000  Level New York Center
06:18AM 40.7900 -75.5456 165° South 319 367 12,000 -300 Level New York Center
06:19AM 40.6956 -75.5144 166° South 319 367 11,500 -720 Descending New York Center
06:20AM 40.6092 -75.4867 166° South 319 367 10,600 -780 Descending New York Center
06:21AM 40.5289 -75.4592 165° South 313 360 10,000 -360 Descending New York Center
06:22AM 40.4569 -75.4325 164° South 313 360 9,900 -900 Descending New York Center
06:23AM 40.3711 -75.3886 159° South 308 354 8,300 -1,560 Descending New York Center
06:24AM 40.3069 -75.3297 145° Southeast 286 329 6,800 -1,380 Descending New York Center
06:25AM 40.2550 -75.2667 137° Southeast 286 329 5,600 -960 Descending New York Center
06:26AM 40.1950 -75.2028 141° Southeast 286 329 5,000 -360 Descending New York Center
06:27AM 40.1311 -75.1283 138° Southeast 286 329 5,000  Level New York Center
06:27AM 40.0833 -75.0667 135° Southeast 266 306 5,000 -240 Level Philadelphia TRACON
06:28AM 40.0500 -75.0333 143° Southeast 188 216 4,600 -900 Descending Philadelphia TRACON
06:29AM 40.0000 -75.0333 180° South 197 227 3,400 -1,140 Descending Philadelphia TRACON
06:30AM 39.9500 -75.0167 166° South 191 220 2,500 -1,020 Descending Philadelphia TRACON